createdAt,value
2018-09-25T00:00:35.980Z,61.96
2018-09-25T00:03:09.606Z,62.13
2018-09-25T00:05:44.070Z,61.92
2018-09-25T00:08:17.621Z,61.86
2018-09-25T00:10:51.200Z,61.57
2018-09-25T00:13:24.858Z,61.60
2018-09-25T00:16:04.519Z,61.60
2018-09-25T00:18:38.200Z,61.75
2018-09-25T00:21:12.735Z,62.06
2018-09-25T00:23:46.438Z,62.17
2018-09-25T00:26:20.746Z,62.29
2018-09-25T00:28:54.318Z,62.51
2018-09-25T00:31:28.798Z,63.02
2018-09-25T00:34:02.460Z,62.96
2018-09-25T00:36:36.388Z,62.85
2018-09-25T00:39:12.218Z,62.71
2018-09-25T00:41:45.898Z,62.70
2018-09-25T00:44:19.594Z,62.66
2018-09-25T00:46:53.360Z,62.55
2018-09-25T00:49:26.818Z,62.86
2018-09-25T00:52:00.542Z,62.93
2018-09-25T00:54:34.202Z,62.84
2018-09-25T00:57:09.418Z,62.79
2018-09-25T00:59:43.094Z,62.69
2018-09-25T01:02:21.273Z,62.90
2018-09-25T01:04:54.901Z,62.83
2018-09-25T01:07:29.379Z,63.16
2018-09-25T01:10:03.160Z,63.16
2018-09-25T01:12:37.653Z,63.21
2018-09-25T01:15:11.436Z,62.94
2018-09-25T01:17:45.185Z,63.11
2018-09-25T01:20:18.742Z,63.09
2018-09-25T01:22:53.799Z,63.08
2018-09-25T01:25:27.597Z,63.18
2018-09-25T01:28:01.292Z,63.01
2018-09-25T01:30:34.819Z,62.89
2018-09-25T01:33:08.577Z,62.87
2018-09-25T01:35:42.225Z,62.77
2018-09-25T01:38:19.801Z,62.89
2018-09-25T01:40:53.463Z,62.87
2018-09-25T01:43:28.937Z,62.84
2018-09-25T01:46:02.404Z,62.80
2018-09-25T01:48:36.099Z,62.88
2018-09-25T01:51:09.595Z,63.19
2018-09-25T01:53:44.077Z,63.40
2018-09-25T01:56:17.757Z,63.32
2018-09-25T01:58:51.473Z,63.11
2018-09-25T02:01:25.166Z,63.34
2018-09-25T02:04:00.279Z,63.07
2018-09-25T02:06:33.882Z,63.14
2018-09-25T02:09:08.337Z,63.10
2018-09-25T02:11:42.001Z,63.32
2018-09-25T02:14:16.518Z,63.51
2018-09-25T02:16:50.977Z,63.64
2018-09-25T02:19:24.794Z,64.01
2018-09-25T02:21:58.261Z,64.18
2018-09-25T02:24:32.099Z,64.29
2018-09-25T02:27:05.678Z,64.13
2018-09-25T02:29:41.663Z,63.96
2018-09-25T02:32:15.314Z,63.89
2018-09-25T02:34:48.995Z,64.03
2018-09-25T02:37:22.651Z,63.94
2018-09-25T02:39:56.384Z,63.78
2018-09-25T02:42:29.998Z,63.61
2018-09-25T02:45:04.490Z,63.23
2018-09-25T02:47:38.022Z,62.98
2018-09-25T02:50:12.874Z,63.10
2018-09-25T02:52:46.520Z,63.33
2018-09-25T02:55:21.662Z,63.43
2018-09-25T02:57:55.307Z,63.06
2018-09-25T03:00:29.779Z,63.14
2018-09-25T03:03:03.458Z,62.97
2018-09-25T03:05:37.207Z,63.22
2018-09-25T03:08:11.119Z,63.14
2018-09-25T03:10:46.333Z,63.19
2018-09-25T03:13:19.929Z,63.00
2018-09-25T03:15:54.359Z,62.82
2018-09-25T03:18:27.803Z,63.24
2018-09-25T03:21:01.323Z,63.27
2018-09-25T03:23:35.037Z,63.21
2018-09-25T03:26:11.006Z,63.05
2018-09-25T03:28:44.714Z,63.30
2018-09-25T03:31:19.358Z,63.41
2018-09-25T03:33:53.004Z,63.28
2018-09-25T03:36:26.574Z,63.54
2018-09-25T03:39:00.227Z,63.55
2018-09-25T03:41:33.923Z,63.70
2018-09-25T03:44:07.494Z,63.57
2018-09-25T03:46:42.679Z,63.73
2018-09-25T03:49:16.324Z,63.73
2018-09-25T03:51:49.906Z,63.94
2018-09-25T03:54:23.572Z,64.25
2018-09-25T03:57:01.984Z,64.36
2018-09-25T03:59:35.633Z,64.45
2018-09-25T04:02:09.516Z,64.27
2018-09-25T04:04:43.104Z,64.38
2018-09-25T04:07:18.479Z,64.80
2018-09-25T04:09:52.027Z,64.82
2018-09-25T04:12:25.577Z,64.77
2018-09-25T04:14:59.283Z,64.88
2018-09-25T04:17:32.987Z,64.70
2018-09-25T04:20:06.612Z,64.79
2018-09-25T04:22:40.293Z,64.45
2018-09-25T04:25:14.090Z,64.63
2018-09-25T04:27:51.466Z,64.85
2018-09-25T04:30:25.046Z,64.66
2018-09-25T04:33:04.904Z,64.64
2018-09-25T04:35:38.434Z,64.77
2018-09-25T04:38:13.917Z,64.45
2018-09-25T04:40:47.403Z,64.33
2018-09-25T04:43:24.226Z,64.24
2018-09-25T04:45:57.869Z,64.40
2018-09-25T04:48:31.451Z,64.04
2018-09-25T04:51:05.190Z,63.94
2018-09-25T04:53:39.000Z,64.04
2018-09-25T04:56:12.726Z,63.99
2018-09-25T04:58:46.469Z,63.76
2018-09-25T05:01:20.118Z,63.72
2018-09-25T05:03:53.848Z,63.97
2018-09-25T05:06:29.127Z,64.31
2018-09-25T05:09:02.704Z,64.61
2018-09-25T05:11:36.386Z,64.64
2018-09-25T05:14:10.135Z,64.64
2018-09-25T05:16:43.585Z,64.48
2018-09-25T05:19:17.098Z,64.43
2018-09-25T05:21:50.665Z,64.69
2018-09-25T05:24:26.849Z,64.64
2018-09-25T05:27:00.418Z,64.68
2018-09-25T05:29:34.081Z,65.12
2018-09-25T05:32:07.741Z,65.01
2018-09-25T05:34:41.409Z,64.83
2018-09-25T05:37:15.161Z,64.90
2018-09-25T05:39:48.850Z,65.14
2018-09-25T05:42:22.285Z,65.19
2018-09-25T05:44:55.978Z,64.92
2018-09-25T05:47:29.645Z,65.38
2018-09-25T05:50:03.295Z,65.60
2018-09-25T05:52:37.062Z,65.84
2018-09-25T05:55:11.685Z,66.04
2018-09-25T05:57:45.406Z,66.08
2018-09-25T06:00:21.224Z,66.37
2018-09-25T06:02:54.758Z,66.26
2018-09-25T06:05:28.643Z,66.16
2018-09-25T06:08:03.246Z,66.06
2018-09-25T06:10:38.282Z,65.83
2018-09-25T06:13:11.910Z,65.98
2018-09-25T06:15:46.382Z,66.10
2018-09-25T06:18:20.046Z,66.17
2018-09-25T06:20:54.588Z,66.29
2018-09-25T06:23:28.234Z,65.78
2018-09-25T06:26:02.272Z,65.32
2018-09-25T06:28:36.002Z,65.31
2018-09-25T06:31:09.712Z,65.09
2018-09-25T06:33:43.434Z,64.64
2018-09-25T06:36:17.125Z,64.96
2018-09-25T06:38:50.799Z,64.65
2018-09-25T06:41:24.493Z,64.51
2018-09-25T06:43:58.162Z,64.58
2018-09-25T06:46:31.602Z,64.37
2018-09-25T06:49:05.298Z,64.14
2018-09-25T06:51:38.950Z,64.34
2018-09-25T06:54:12.659Z,64.37
2018-09-25T06:56:46.531Z,64.38
2018-09-25T06:59:20.090Z,64.25
2018-09-25T07:01:53.841Z,64.81
2018-09-25T07:04:27.466Z,65.00
2018-09-25T07:07:01.160Z,64.92
2018-09-25T07:09:35.121Z,64.43
2018-09-25T07:12:08.872Z,64.66
2018-09-25T07:14:42.394Z,64.60
2018-09-25T07:17:16.180Z,64.50
2018-09-25T07:19:49.846Z,64.67
2018-09-25T07:22:23.474Z,64.54
2018-09-25T07:24:57.219Z,64.22
2018-09-25T07:27:30.918Z,63.85
2018-09-25T07:30:04.666Z,63.81
2018-09-25T07:32:38.372Z,63.61
2018-09-25T07:35:12.082Z,63.09
2018-09-25T07:37:45.958Z,63.26
2018-09-25T07:40:19.639Z,63.24
2018-09-25T07:42:53.398Z,63.23
2018-09-25T07:45:27.082Z,63.67
2018-09-25T07:48:00.535Z,63.49
2018-09-25T07:50:34.374Z,62.99
2018-09-25T07:53:07.874Z,62.81
2018-09-25T07:55:41.516Z,63.53
2018-09-25T07:58:15.186Z,63.56
2018-09-25T08:00:48.888Z,63.30
2018-09-25T08:03:22.626Z,62.89
2018-09-25T08:05:56.231Z,62.92
2018-09-25T08:08:30.037Z,62.60
2018-09-25T08:11:03.695Z,62.59
2018-09-25T08:13:37.585Z,62.84
2018-09-25T08:16:11.959Z,62.67
2018-09-25T08:18:45.625Z,62.53
2018-09-25T08:21:19.423Z,62.33
2018-09-25T08:23:53.295Z,61.98
2018-09-25T08:26:26.879Z,61.41
2018-09-25T08:29:00.607Z,61.03
2018-09-25T08:31:34.295Z,60.75
2018-09-25T08:34:08.134Z,60.43
2018-09-25T08:36:41.639Z,60.16
2018-09-25T08:39:15.251Z,59.87
2018-09-25T08:41:49.116Z,59.98
2018-09-25T08:44:22.788Z,59.72
2018-09-25T08:46:56.223Z,59.28
2018-09-25T08:49:29.893Z,58.85
2018-09-25T08:52:03.301Z,58.95
2018-09-25T08:54:37.083Z,58.83
2018-09-25T08:57:10.878Z,58.92
2018-09-25T08:59:44.550Z,58.57
2018-09-25T09:02:18.353Z,58.71
2018-09-25T09:04:51.927Z,58.66
2018-09-25T09:07:25.445Z,58.36
2018-09-25T09:09:59.055Z,58.39
2018-09-25T09:12:32.891Z,58.39
2018-09-25T09:15:06.888Z,57.96
2018-09-25T09:17:40.629Z,58.17
2018-09-25T09:20:14.479Z,57.83
2018-09-25T09:22:48.095Z,58.01
2018-09-25T09:25:21.723Z,57.45
2018-09-25T09:27:55.479Z,57.07
2018-09-25T09:30:28.947Z,57.21
2018-09-25T09:33:02.641Z,57.24
2018-09-25T09:35:36.394Z,57.38
2018-09-25T09:38:09.807Z,56.99
2018-09-25T09:40:43.551Z,56.89
2018-09-25T09:43:18.009Z,57.08
2018-09-25T09:45:51.765Z,57.11
2018-09-25T09:48:25.468Z,57.03
2018-09-25T09:50:59.135Z,56.81
2018-09-25T09:53:32.817Z,57.05
2018-09-25T09:56:06.791Z,56.80
2018-09-25T09:58:42.227Z,56.67
2018-09-25T10:01:15.941Z,55.97
2018-09-25T10:03:49.975Z,56.31
2018-09-25T10:06:23.587Z,56.53
2018-09-25T10:08:57.273Z,56.89
2018-09-25T10:11:31.337Z,56.79
2018-09-25T10:14:04.981Z,56.69
2018-09-25T10:16:38.877Z,56.59
2018-09-25T10:19:12.418Z,56.28
2018-09-25T10:21:46.182Z,56.10
2018-09-25T10:24:19.861Z,55.68
2018-09-25T10:26:53.745Z,55.53
2018-09-25T10:29:27.433Z,55.58
2018-09-25T10:32:01.160Z,55.17
2018-09-25T10:34:34.826Z,55.00
2018-09-25T10:37:08.722Z,54.77
2018-09-25T10:39:42.493Z,54.76
2018-09-25T10:42:16.246Z,54.47
2018-09-25T10:44:49.744Z,54.43
2018-09-25T10:47:23.472Z,54.01
2018-09-25T10:49:57.365Z,53.48
2018-09-25T10:52:31.035Z,53.42
2018-09-25T10:55:04.669Z,51.83
2018-09-25T10:57:38.103Z,52.08
2018-09-25T11:00:11.704Z,51.81
2018-09-25T11:02:45.449Z,51.15
2018-09-25T11:05:18.857Z,50.26
2018-09-25T11:07:52.643Z,49.85
2018-09-25T11:10:26.327Z,50.71
2018-09-25T11:12:59.949Z,51.40
2018-09-25T11:15:33.715Z,50.99
2018-09-25T11:18:07.538Z,49.95
2018-09-25T11:20:41.160Z,49.76
2018-09-25T11:23:14.966Z,50.38
2018-09-25T11:25:48.708Z,50.14
2018-09-25T11:28:22.326Z,50.16
2018-09-25T11:30:56.150Z,49.65
2018-09-25T11:33:29.921Z,49.13
2018-09-25T11:36:03.478Z,48.37
2018-09-25T11:38:37.362Z,48.57
2018-09-25T11:41:10.853Z,48.68
2018-09-25T11:43:44.490Z,48.34
2018-09-25T11:46:18.202Z,48.42
2018-09-25T11:48:51.898Z,48.50
2018-09-25T11:51:25.734Z,48.15
2018-09-25T11:53:59.191Z,47.90
2018-09-25T11:56:32.779Z,47.32
2018-09-25T11:59:06.402Z,46.65
2018-09-25T12:01:40.102Z,46.32
2018-09-25T12:04:13.803Z,45.40
2018-09-25T12:06:47.342Z,45.56
2018-09-25T12:09:21.008Z,45.85
2018-09-25T12:11:54.681Z,46.27
2018-09-25T12:14:28.595Z,46.16
2018-09-25T12:17:02.317Z,45.96
2018-09-25T12:19:36.226Z,46.13
2018-09-25T12:22:09.821Z,45.72
2018-09-25T12:24:43.510Z,44.78
2018-09-25T12:27:17.217Z,44.29
2018-09-25T12:29:50.947Z,44.28
2018-09-25T12:32:24.671Z,44.47
2018-09-25T12:34:58.301Z,44.52
2018-09-25T12:37:32.120Z,43.76
2018-09-25T12:40:05.823Z,43.66
2018-09-25T12:42:39.543Z,42.75
2018-09-25T12:45:13.065Z,41.48
2018-09-25T12:47:46.681Z,41.13
2018-09-25T12:50:20.334Z,42.07
2018-09-25T12:52:53.823Z,42.71
2018-09-25T12:55:27.691Z,42.60
2018-09-25T12:58:01.205Z,42.78
2018-09-25T13:00:34.834Z,42.74
2018-09-25T13:03:08.452Z,41.60
2018-09-25T13:05:42.195Z,40.70
2018-09-25T13:08:15.950Z,40.25
2018-09-25T13:10:49.854Z,41.48
2018-09-25T13:13:23.546Z,41.45
2018-09-25T13:15:58.042Z,41.44
2018-09-25T13:18:31.413Z,40.31
2018-09-25T13:21:05.081Z,40.89
2018-09-25T13:23:38.811Z,40.65
2018-09-25T13:26:12.484Z,40.68
2018-09-25T13:28:46.098Z,40.84
2018-09-25T13:31:19.586Z,41.01
2018-09-25T13:33:53.146Z,41.03
2018-09-25T13:36:27.001Z,40.96
2018-09-25T13:39:00.578Z,40.68
2018-09-25T13:41:35.006Z,40.22
2018-09-25T13:44:08.808Z,40.25
2018-09-25T13:46:42.574Z,39.49
2018-09-25T13:49:16.134Z,39.23
2018-09-25T13:51:49.797Z,39.40
2018-09-25T13:54:23.542Z,39.12
2018-09-25T13:56:57.246Z,39.05
2018-09-25T13:59:30.818Z,39.26
2018-09-25T14:02:04.563Z,39.50
2018-09-25T14:04:38.242Z,39.54
2018-09-25T14:07:11.967Z,39.70
2018-09-25T14:09:45.702Z,39.29
2018-09-25T14:12:19.383Z,38.42
2018-09-25T14:14:53.158Z,38.73
2018-09-25T14:17:27.016Z,39.14
2018-09-25T14:20:00.783Z,39.59
2018-09-25T14:22:34.879Z,39.35
2018-09-25T14:25:08.536Z,39.11
2018-09-25T14:27:42.267Z,38.74
2018-09-25T14:30:16.011Z,38.97
2018-09-25T14:32:49.741Z,38.71
2018-09-25T14:35:23.505Z,38.06
2018-09-25T14:37:57.115Z,38.18
2018-09-25T14:40:30.813Z,38.91
2018-09-25T14:43:04.501Z,39.11
2018-09-25T14:45:38.088Z,38.63
2018-09-25T14:48:11.777Z,38.03
2018-09-25T14:50:45.517Z,37.37
2018-09-25T14:53:19.146Z,38.19
2018-09-25T14:55:52.765Z,38.04
2018-09-25T14:58:26.341Z,37.89
2018-09-25T15:01:00.026Z,37.69
2018-09-25T15:03:33.742Z,37.75
2018-09-25T15:06:07.413Z,38.13
2018-09-25T15:08:41.132Z,37.97
2018-09-25T15:11:14.858Z,37.50
2018-09-25T15:13:48.624Z,37.94
2018-09-25T15:16:22.287Z,38.16
2018-09-25T15:18:56.042Z,38.15
2018-09-25T15:21:29.625Z,37.30
2018-09-25T15:24:03.329Z,38.18
2018-09-25T15:26:37.191Z,37.23
2018-09-25T15:29:10.748Z,37.73
2018-09-25T15:31:44.417Z,37.16
2018-09-25T15:34:18.185Z,37.43
2018-09-25T15:36:58.714Z,37.59
2018-09-25T15:39:32.445Z,38.51
2018-09-25T15:42:06.195Z,38.03
2018-09-25T15:44:39.955Z,38.31
2018-09-25T15:47:13.527Z,38.12
2018-09-25T15:49:47.419Z,38.82
2018-09-25T15:52:21.119Z,39.19
2018-09-25T15:54:54.821Z,39.58
2018-09-25T15:57:28.581Z,39.40
2018-09-25T16:00:02.307Z,39.39
2018-09-25T16:02:36.069Z,38.84
2018-09-25T16:05:09.797Z,38.61
2018-09-25T16:07:43.556Z,38.51
2018-09-25T16:10:17.274Z,38.53
2018-09-25T16:12:50.903Z,38.33
2018-09-25T16:15:24.649Z,38.08
2018-09-25T16:17:58.380Z,38.16
2018-09-25T16:20:32.101Z,38.19
2018-09-25T16:23:05.786Z,38.14
2018-09-25T16:25:39.495Z,38.43
2018-09-25T16:28:13.065Z,38.87
2018-09-25T16:30:46.788Z,38.99
2018-09-25T16:33:20.407Z,38.95
2018-09-25T16:35:54.069Z,39.27
2018-09-25T16:38:27.804Z,39.20
2018-09-25T16:41:01.470Z,39.58
2018-09-25T16:43:35.118Z,39.78
2018-09-25T16:46:08.854Z,39.93
2018-09-25T16:48:42.470Z,40.32
2018-09-25T16:51:16.189Z,40.42
2018-09-25T16:53:49.908Z,40.51
2018-09-25T16:56:23.477Z,40.65
2018-09-25T16:58:57.217Z,41.20
2018-09-25T17:01:30.956Z,41.32
2018-09-25T17:04:04.642Z,41.64
2018-09-25T17:06:38.307Z,41.35
2018-09-25T17:09:12.570Z,41.75
2018-09-25T17:11:46.294Z,42.01
2018-09-25T17:14:19.991Z,42.10
2018-09-25T17:16:53.643Z,42.40
2018-09-25T17:19:27.179Z,42.50
2018-09-25T17:22:00.902Z,42.49
2018-09-25T17:24:34.590Z,42.65
2018-09-25T17:27:08.347Z,42.95
2018-09-25T17:29:42.085Z,42.68
2018-09-25T17:32:15.937Z,42.86
2018-09-25T17:41:41.990Z,43.23
2018-09-25T17:44:15.591Z,43.38
2018-09-25T17:46:49.167Z,43.56
2018-09-25T17:49:22.866Z,43.90
2018-09-25T17:51:56.666Z,43.68
2018-09-25T17:54:30.174Z,43.71
2018-09-25T17:57:03.663Z,43.69
2018-09-25T17:59:37.241Z,43.85
2018-09-25T18:02:10.985Z,43.82
2018-09-25T18:04:45.687Z,43.72
2018-09-25T18:07:19.419Z,43.81
2018-09-25T18:09:53.065Z,44.27
2018-09-25T18:12:26.685Z,44.38
2018-09-25T18:15:00.395Z,44.28
2018-09-25T18:17:33.918Z,44.44
2018-09-25T18:20:07.662Z,45.91
2018-09-25T18:22:42.258Z,46.71
2018-09-25T18:25:15.909Z,47.68
2018-09-25T18:27:49.678Z,48.00
2018-09-25T18:30:23.344Z,48.16
2018-09-25T18:32:57.033Z,48.35
2018-09-25T18:35:30.850Z,49.22
2018-09-25T18:38:04.511Z,49.67
2018-09-25T18:40:38.155Z,50.07
2018-09-25T18:43:11.789Z,50.37
2018-09-25T18:45:45.460Z,50.50
2018-09-25T18:48:19.479Z,50.71
2018-09-25T18:50:53.162Z,50.46
2018-09-25T18:53:26.761Z,50.57
2018-09-25T18:56:00.382Z,50.63
2018-09-25T18:58:34.558Z,50.83
2018-09-25T19:01:08.085Z,51.11
2018-09-25T19:03:41.602Z,51.31
2018-09-25T19:06:15.365Z,51.65
2018-09-25T19:08:49.098Z,51.32
2018-09-25T19:11:22.698Z,51.52
2018-09-25T19:13:56.429Z,51.60
2018-09-25T19:16:30.132Z,51.89
2018-09-25T19:19:03.671Z,51.98
2018-09-25T19:21:37.427Z,51.79
2018-09-25T19:24:11.578Z,52.00
2018-09-25T19:26:45.322Z,52.03
2018-09-25T19:29:19.075Z,52.22
2018-09-25T19:31:52.830Z,52.63
2018-09-25T19:34:26.359Z,52.70
2018-09-25T19:37:00.814Z,53.04
2018-09-25T19:39:34.462Z,53.12
2018-09-25T19:42:08.162Z,53.45
2018-09-25T19:44:41.963Z,53.48
2018-09-25T19:47:15.623Z,53.85
2018-09-25T19:49:49.446Z,54.50
2018-09-25T19:52:22.918Z,54.50
2018-09-25T19:54:56.613Z,54.40
2018-09-25T19:57:30.358Z,54.33
2018-09-25T20:00:04.141Z,54.42
2018-09-25T20:02:37.783Z,54.39
2018-09-25T20:05:11.311Z,54.73
2018-09-25T20:07:45.079Z,54.56
2018-09-25T20:10:18.907Z,54.65
2018-09-25T20:12:52.566Z,55.34
2018-09-25T20:15:26.234Z,56.04
2018-09-25T20:17:59.902Z,56.28
2018-09-25T20:20:33.539Z,56.30
2018-09-25T20:23:07.184Z,56.57
2018-09-25T20:25:40.646Z,56.84
2018-09-25T20:28:14.323Z,56.99
2018-09-25T20:30:48.006Z,57.07
2018-09-25T20:33:22.426Z,56.84
2018-09-25T20:35:56.137Z,57.06
2018-09-25T20:38:29.726Z,56.95
2018-09-25T20:41:03.402Z,56.70
2018-09-25T20:43:37.116Z,56.65
2018-09-25T20:46:11.058Z,56.64
2018-09-25T20:48:44.755Z,56.62
2018-09-25T20:51:18.221Z,56.62
2018-09-25T20:53:51.754Z,56.62
2018-09-25T20:56:25.502Z,56.65
2018-09-25T20:58:58.902Z,56.43
2018-09-25T21:01:32.767Z,56.57
2018-09-25T21:04:06.376Z,56.53
2018-09-25T21:06:40.062Z,56.63
2018-09-25T21:09:14.241Z,56.83
2018-09-25T21:11:48.617Z,57.20
2018-09-25T21:14:22.330Z,57.27
2018-09-25T21:16:56.022Z,57.59
2018-09-25T21:19:29.674Z,57.49
2018-09-25T21:22:03.369Z,58.21
2018-09-25T21:24:37.006Z,58.14
2018-09-25T21:27:10.855Z,58.49
2018-09-25T21:29:44.622Z,58.63
2018-09-25T21:32:18.393Z,58.46
2018-09-25T21:34:51.978Z,58.59
2018-09-25T21:37:25.546Z,58.50
2018-09-25T21:39:59.002Z,58.19
2018-09-25T21:42:32.574Z,58.34
2018-09-25T21:45:06.123Z,58.39
2018-09-25T21:47:39.611Z,58.44
2018-09-25T21:50:13.121Z,58.29
2018-09-25T21:52:47.241Z,58.15
2018-09-25T21:55:20.810Z,58.68
2018-09-25T21:57:54.424Z,58.98
2018-09-25T22:00:28.078Z,59.00
2018-09-25T22:03:01.870Z,59.29
2018-09-25T22:05:35.463Z,59.21
2018-09-25T22:08:08.998Z,59.63
2018-09-25T22:10:42.474Z,59.69
2018-09-25T22:13:16.138Z,59.69
2018-09-25T22:15:49.558Z,59.74
2018-09-25T22:18:23.057Z,59.92
2018-09-25T22:20:56.562Z,60.16
2018-09-25T22:23:30.158Z,60.16
2018-09-25T22:26:03.855Z,60.02
2018-09-25T22:28:37.247Z,59.75
2018-09-25T22:31:10.920Z,59.69
2018-09-25T22:33:44.434Z,59.95
2018-09-25T22:36:18.119Z,59.93
2018-09-25T22:38:51.612Z,59.91
2018-09-25T22:41:25.166Z,60.29
2018-09-25T22:43:58.858Z,60.02
2018-09-25T22:46:32.550Z,60.14
2018-09-25T22:49:06.116Z,59.74
2018-09-25T22:51:39.838Z,59.31
2018-09-25T22:54:13.554Z,59.29
2018-09-25T22:56:47.154Z,59.29
2018-09-25T22:59:20.878Z,59.19
2018-09-25T23:01:54.491Z,59.48
2018-09-25T23:04:28.166Z,59.21
2018-09-25T23:07:01.558Z,59.33
2018-09-25T23:09:35.420Z,59.57
2018-09-25T23:12:08.942Z,59.85
2018-09-25T23:14:42.633Z,60.19
2018-09-25T23:17:16.198Z,59.98
2018-09-25T23:19:49.902Z,59.94
2018-09-25T23:22:23.342Z,60.11
2018-09-25T23:24:57.122Z,59.89
2018-09-25T23:27:30.849Z,60.14
2018-09-25T23:30:04.479Z,59.83
2018-09-25T23:32:37.962Z,59.95
2018-09-25T23:35:11.634Z,59.94
2018-09-25T23:37:45.273Z,59.63
2018-09-25T23:40:21.925Z,59.57
2018-09-25T23:42:58.582Z,59.59
2018-09-25T23:45:32.271Z,59.39
2018-09-25T23:48:04.934Z,59.63
2018-09-25T23:50:38.635Z,59.54
2018-09-25T23:53:11.346Z,59.82
2018-09-25T23:55:43.237Z,59.59
2018-09-25T23:58:16.099Z,59.59
